Time;durP1;ratioP1;P1;durP2;ratioP2;P2;SDS_P1;SDS_P2;PMS_P1;PMS_P2;Temp;Humidity;BMP_temperature;BMP_pressure;BME280_temperature;BME280_humidity;BME280_pressure;Samples;Min_cycle;Max_cycle;Signal;HPM_P1;HPM_P2
2022/06/25 00:01:10;;;;;;;0.00;0.00;;;18.50;82.20;;;;;;5039404;28;21556;-69
2022/06/25 00:03:37;;;;;;;0.00;0.00;;;18.40;82.40;;;;;;5039963;28;20478;-69
2022/06/25 00:06:03;;;;;;;0.00;0.00;;;18.40;82.40;;;;;;5039776;28;20108;-69
2022/06/25 00:08:30;;;;;;;0.55;0.45;;;18.30;82.60;;;;;;5041779;28;20041;-69
2022/06/25 00:10:55;;;;;;;0.00;0.00;;;18.40;82.60;;;;;;5043220;28;20057;-69
2022/06/25 00:13:21;;;;;;;0.00;0.00;;;18.30;82.60;;;;;;5035638;28;20057;-69
2022/06/25 00:15:47;;;;;;;0.00;0.00;;;18.30;82.60;;;;;;5036957;28;20128;-69
2022/06/25 00:18:14;;;;;;;0.00;0.00;;;18.30;82.80;;;;;;5038980;28;20089;-69
2022/06/25 00:20:41;;;;;;;0.00;0.00;;;18.30;82.80;;;;;;5039951;28;20059;-69
2022/06/25 00:23:07;;;;;;;0.00;0.00;;;18.30;82.80;;;;;;5039685;28;20044;-69
2022/06/25 00:25:33;;;;;;;0.00;0.00;;;18.30;82.90;;;;;;5040334;28;20127;-69
2022/06/25 00:27:58;;;;;;;0.00;0.00;;;18.20;82.90;;;;;;5037104;28;20080;-69
2022/06/25 00:30:24;;;;;;;0.00;0.00;;;18.20;82.90;;;;;;5041002;28;20045;-70
2022/06/25 00:32:50;;;;;;;0.00;0.00;;;18.20;82.80;;;;;;5036122;28;20469;-69
2022/06/25 00:35:16;;;;;;;0.00;0.00;;;18.20;82.80;;;;;;5039540;28;20043;-69
2022/06/25 00:37:41;;;;;;;0.00;0.00;;;18.20;82.60;;;;;;5036832;28;20414;-69
2022/06/25 00:40:09;;;;;;;0.25;0.25;;;18.10;82.60;;;;;;5036518;28;20036;-69
2022/06/25 00:42:35;;;;;;;0.00;0.00;;;18.10;82.60;;;;;;5071749;28;20049;-69
2022/06/25 00:45:01;;;;;;;0.00;0.00;;;18.10;82.70;;;;;;5042423;28;20045;-69
2022/06/25 00:47:26;;;;;;;0.00;0.00;;;18.10;82.80;;;;;;5036908;28;20919;-69
2022/06/25 00:49:53;;;;;;;0.00;0.00;;;18.10;82.60;;;;;;5039977;28;20033;-69
2022/06/25 00:52:20;;;;;;;0.00;0.00;;;18.10;82.50;;;;;;5035414;28;20041;-69
2022/06/25 00:54:51;;;;;;;0.00;0.00;;;18.00;82.50;;;;;;5040959;28;20072;-70
2022/06/25 00:57:25;;;;;;;0.00;0.00;;;18.00;82.50;;;;;;5042292;28;20052;-70
2022/06/25 00:59:52;;;;;;;0.00;0.00;;;17.90;82.40;;;;;;5038662;28;20526;-70
2022/06/25 01:02:22;;;;;;;0.10;0.10;;;17.90;82.50;;;;;;5039501;28;20041;-70
2022/06/25 01:04:49;;;;;;;0.00;0.00;;;17.80;82.60;;;;;;5038761;28;20053;-70
2022/06/25 01:07:15;;;;;;;0.00;0.00;;;17.80;82.50;;;;;;5037887;28;20045;-69
2022/06/25 01:09:41;;;;;;;0.00;0.00;;;17.80;82.60;;;;;;5035565;28;20168;-69
2022/06/25 01:12:07;;;;;;;0.00;0.00;;;17.70;82.60;;;;;;5038872;28;20211;-69
2022/06/25 01:14:33;;;;;;;0.00;0.00;;;17.70;82.70;;;;;;5042484;28;20044;-69
2022/06/25 01:16:58;;;;;;;0.00;0.00;;;17.60;82.60;;;;;;5036024;28;20049;-70
2022/06/25 01:19:24;;;;;;;0.00;0.00;;;17.60;82.60;;;;;;5040209;28;20517;-70
2022/06/25 01:21:50;;;;;;;0.00;0.00;;;17.60;83.10;;;;;;5034345;28;20526;-70
2022/06/25 01:24:15;;;;;;;0.00;0.00;;;17.60;83.00;;;;;;5037747;28;20086;-69
2022/06/25 01:26:42;;;;;;;0.00;0.00;;;17.60;82.90;;;;;;5040738;28;20615;-70
2022/06/25 01:29:09;;;;;;;0.00;0.00;;;17.60;83.40;;;;;;5034518;28;20079;-69
2022/06/25 01:31:36;;;;;;;0.00;0.00;;;17.60;83.40;;;;;;5038347;28;20068;-70
2022/06/25 01:34:03;;;;;;;0.00;0.00;;;17.60;83.50;;;;;;5041582;28;20081;-70
2022/06/25 01:36:28;;;;;;;0.00;0.00;;;17.60;83.70;;;;;;5034411;28;20040;-69
2022/06/25 01:38:54;;;;;;;0.00;0.00;;;17.60;83.90;;;;;;5039019;28;20046;-70
2022/06/25 01:41:20;;;;;;;0.00;0.00;;;17.70;84.00;;;;;;5039225;28;20044;-69
2022/06/25 01:43:46;;;;;;;0.00;0.00;;;17.70;84.00;;;;;;5042329;28;20554;-70
2022/06/25 01:46:14;;;;;;;0.00;0.00;;;17.70;83.90;;;;;;5037781;28;20083;-69
2022/06/25 01:48:39;;;;;;;0.00;0.00;;;17.70;83.90;;;;;;5041463;28;20049;-69
2022/06/25 01:51:05;;;;;;;0.00;0.00;;;17.80;83.90;;;;;;5042207;28;20049;-70
2022/06/25 01:53:31;;;;;;;0.00;0.00;;;17.80;84.00;;;;;;5040299;28;20037;-69
2022/06/25 01:55:57;;;;;;;0.00;0.00;;;17.80;84.00;;;;;;5038051;28;20045;-70
2022/06/25 01:58:23;;;;;;;0.00;0.00;;;17.80;83.90;;;;;;5041075;28;20390;-69
2022/06/25 02:00:49;;;;;;;0.00;0.00;;;17.80;83.80;;;;;;5044459;28;20082;-69
2022/06/25 02:03:15;;;;;;;0.00;0.00;;;17.80;84.20;;;;;;5046231;28;20045;-70
2022/06/25 02:05:57;;;;;;;0.00;0.00;;;17.80;84.40;;;;;;5043065;28;20047;-70
2022/06/25 02:08:25;;;;;;;0.00;0.00;;;17.80;84.30;;;;;;5039182;28;20083;-69
2022/06/25 02:10:51;;;;;;;0.00;0.00;;;17.80;84.40;;;;;;5039928;28;20122;-70
2022/06/25 02:13:17;;;;;;;0.00;0.00;;;17.90;84.10;;;;;;5041263;28;20044;-69
2022/06/25 02:15:43;;;;;;;0.00;0.00;;;17.80;84.10;;;;;;5041098;28;20558;-69
2022/06/25 02:18:10;;;;;;;0.00;0.00;;;17.80;84.30;;;;;;5041202;28;20076;-70
2022/06/25 02:20:36;;;;;;;0.03;0.03;;;17.80;84.20;;;;;;5040830;28;20045;-70
2022/06/25 02:23:02;;;;;;;0.00;0.00;;;17.80;84.30;;;;;;5039432;28;20052;-69
2022/06/25 02:25:28;;;;;;;0.00;0.00;;;17.80;84.30;;;;;;5042898;28;20037;-69
2022/06/25 02:27:54;;;;;;;0.10;0.10;;;17.80;84.50;;;;;;5038024;28;20068;-70
2022/06/25 02:30:20;;;;;;;0.00;0.00;;;17.80;84.30;;;;;;5041473;28;20071;-69
2022/06/25 02:32:45;;;;;;;0.00;0.00;;;17.80;84.70;;;;;;5039735;28;20049;-69
2022/06/25 02:35:11;;;;;;;0.00;0.00;;;17.80;84.70;;;;;;5039257;28;20047;-70
2022/06/25 02:37:36;;;;;;;0.00;0.00;;;17.80;84.70;;;;;;5040973;28;20037;-70
2022/06/25 02:40:03;;;;;;;0.00;0.00;;;17.90;84.70;;;;;;5042975;28;20045;-69
2022/06/25 02:42:38;;;;;;;0.10;0.10;;;17.80;84.60;;;;;;5040235;28;20394;-69
2022/06/25 02:45:06;;;;;;;0.00;0.00;;;17.90;84.70;;;;;;5039301;28;20481;-70
2022/06/25 02:47:32;;;;;;;0.00;0.00;;;17.80;84.50;;;;;;5037292;28;20410;-69
2022/06/25 02:49:57;;;;;;;0.00;0.00;;;17.80;84.80;;;;;;5044620;28;20049;-70
2022/06/25 02:52:23;;;;;;;0.10;0.10;;;17.80;84.60;;;;;;5039795;28;20037;-69
2022/06/25 02:54:49;;;;;;;0.00;0.00;;;17.80;84.70;;;;;;5040629;28;20549;-69
2022/06/25 02:59:58;;;;;;;0.00;0.00;;;17.80;84.50;;;;;;5037304;28;20084;-70
2022/06/25 03:02:24;;;;;;;0.00;0.00;;;17.80;84.40;;;;;;5037210;28;20072;-69
2022/06/25 03:04:50;;;;;;;0.00;0.00;;;17.80;84.60;;;;;;5038876;28;20064;-69
2022/06/25 03:07:16;;;;;;;0.00;0.00;;;17.80;84.60;;;;;;5038083;28;20604;-70
2022/06/25 03:09:41;;;;;;;0.00;0.00;;;17.80;84.60;;;;;;5042184;28;20080;-69
2022/06/25 03:12:07;;;;;;;0.00;0.00;;;17.80;84.50;;;;;;5038248;28;20491;-70
2022/06/25 03:14:33;;;;;;;0.00;0.00;;;17.70;84.60;;;;;;5039716;28;20037;-69
2022/06/25 03:16:59;;;;;;;1.55;0.80;;;17.70;85.00;;;;;;5037695;28;20063;-69
2022/06/25 03:19:24;;;;;;;0.00;0.00;;;17.70;84.90;;;;;;5041938;28;20050;-69
2022/06/25 03:21:50;;;;;;;0.00;0.00;;;17.80;84.90;;;;;;5039954;28;20095;-69
2022/06/25 03:24:16;;;;;;;0.00;0.00;;;17.80;84.90;;;;;;5041800;28;20033;-69
2022/06/25 03:26:42;;;;;;;0.00;0.00;;;17.80;85.00;;;;;;5038145;28;20056;-69
2022/06/25 03:29:08;;;;;;;0.00;0.00;;;17.80;85.00;;;;;;5042039;28;20465;-70
2022/06/25 03:31:34;;;;;;;0.00;0.00;;;17.80;85.20;;;;;;5042216;28;20044;-69
2022/06/25 03:33:59;;;;;;;0.00;0.00;;;17.80;85.10;;;;;;5040340;28;20041;-69
2022/06/25 03:36:25;;;;;;;0.00;0.00;;;17.80;84.90;;;;;;5035311;28;20165;-69
2022/06/25 03:38:51;;;;;;;0.00;0.00;;;17.80;85.10;;;;;;5038520;28;20048;-69
2022/06/25 03:44:10;;;;;;;0.08;0.08;;;17.70;85.40;;;;;;5037187;28;20053;-70
2022/06/25 03:46:37;;;;;;;0.00;0.00;;;17.80;85.30;;;;;;5045428;28;20045;-69
2022/06/25 03:49:04;;;;;;;0.65;0.65;;;17.80;85.20;;;;;;5048651;28;20102;-70
2022/06/25 03:51:30;;;;;;;0.00;0.00;;;17.80;85.30;;;;;;5049409;28;20045;-70
2022/06/25 03:53:56;;;;;;;0.00;0.00;;;17.80;85.20;;;;;;5049379;28;20037;-70
2022/06/25 03:56:22;;;;;;;0.00;0.00;;;17.80;85.30;;;;;;5049202;28;20586;-70
2022/06/25 03:58:48;;;;;;;0.45;0.45;;;17.80;85.30;;;;;;5049268;28;20044;-69
2022/06/25 04:01:14;;;;;;;0.00;0.00;;;17.70;85.40;;;;;;5048975;28;20094;-69
2022/06/25 04:03:40;;;;;;;0.00;0.00;;;17.80;85.40;;;;;;5048975;28;20456;-70
2022/06/25 04:06:07;;;;;;;0.00;0.00;;;17.70;85.40;;;;;;5049482;28;20033;-70
2022/06/25 04:08:32;;;;;;;0.00;0.00;;;17.80;85.40;;;;;;5049356;28;20101;-69
2022/06/25 04:10:59;;;;;;;0.28;0.28;;;17.80;85.40;;;;;;5048690;28;20144;-69
2022/06/25 04:13:25;;;;;;;0.00;0.00;;;17.80;85.50;;;;;;5048327;28;20040;-70
2022/06/25 04:15:50;;;;;;;0.00;0.00;;;17.80;86.10;;;;;;5046310;28;20116;-70
2022/06/25 04:18:16;;;;;;;0.00;0.00;;;17.80;86.00;;;;;;5047747;28;20127;-70
2022/06/25 04:20:42;;;;;;;0.00;0.00;;;17.80;86.20;;;;;;5049118;28;20085;-69
2022/06/25 04:23:07;;;;;;;0.00;0.00;;;17.80;86.00;;;;;;5048760;28;20037;-70
2022/06/25 04:25:33;;;;;;;0.00;0.00;;;17.80;85.90;;;;;;5048623;28;20084;-70
2022/06/25 04:30:43;;;;;;;0.00;0.00;;;17.80;85.90;;;;;;5033383;28;20383;-70
2022/06/25 04:33:09;;;;;;;0.13;0.13;;;17.90;86.20;;;;;;5047632;28;20072;-70
2022/06/25 04:35:34;;;;;;;0.00;0.00;;;17.90;86.10;;;;;;5048927;28;20045;-70
2022/06/25 04:38:00;;;;;;;0.00;0.00;;;17.90;86.20;;;;;;5048877;28;20048;-69
2022/06/25 04:40:28;;;;;;;0.00;0.00;;;17.90;86.20;;;;;;5048164;28;20045;-69
2022/06/25 04:42:54;;;;;;;0.00;0.00;;;17.90;86.20;;;;;;5048329;28;20440;-70
2022/06/25 04:45:19;;;;;;;0.00;0.00;;;18.00;86.20;;;;;;5048528;28;20052;-66
2022/06/25 04:47:45;;;;;;;0.00;0.00;;;18.00;86.20;;;;;;5048763;28;20045;-66
2022/06/25 04:50:10;;;;;;;0.00;0.00;;;18.00;86.20;;;;;;5045955;28;20465;-67
2022/06/25 04:52:36;;;;;;;0.00;0.00;;;18.10;86.30;;;;;;5047656;28;20048;-66
2022/06/25 04:55:02;;;;;;;1.48;0.20;;;18.10;86.30;;;;;;5044572;28;20063;-65
2022/06/25 04:57:28;;;;;;;0.00;0.00;;;18.10;86.30;;;;;;5028432;28;20051;-65
2022/06/25 04:59:53;;;;;;;0.00;0.00;;;18.20;85.90;;;;;;5045484;28;20765;-65
2022/06/25 05:02:19;;;;;;;0.10;0.10;;;18.20;85.80;;;;;;5048216;28;20049;-66
2022/06/25 05:04:45;;;;;;;0.00;0.00;;;18.20;85.80;;;;;;5047966;28;20542;-65
2022/06/25 05:07:10;;;;;;;0.00;0.00;;;18.30;85.50;;;;;;5048186;28;20098;-65
2022/06/25 05:09:36;;;;;;;0.00;0.00;;;18.30;85.90;;;;;;5047753;28;20053;-66
2022/06/25 05:12:02;;;;;;;0.00;0.00;;;18.30;86.00;;;;;;5044799;28;20045;-65
2022/06/25 05:14:27;;;;;;;0.00;0.00;;;18.40;86.00;;;;;;5049546;28;20085;-65
2022/06/25 05:16:54;;;;;;;0.00;0.00;;;18.40;85.90;;;;;;5050851;28;20048;-67
2022/06/25 05:19:20;;;;;;;0.00;0.00;;;18.50;85.70;;;;;;5040352;28;20061;-67
2022/06/25 05:21:46;;;;;;;0.00;0.00;;;18.50;85.70;;;;;;5051463;28;20048;-67
2022/06/25 05:24:11;;;;;;;0.00;0.00;;;18.50;86.00;;;;;;5032605;28;20115;-67
2022/06/25 05:26:37;;;;;;;0.00;0.00;;;18.60;86.10;;;;;;5040175;28;20036;-66
2022/06/25 05:29:02;;;;;;;0.00;0.00;;;18.60;85.90;;;;;;5051916;28;20053;-67
2022/06/25 05:31:28;;;;;;;0.10;0.10;;;18.60;86.00;;;;;;5051128;28;20040;-66
2022/06/25 05:33:54;;;;;;;0.00;0.00;;;18.70;85.80;;;;;;5050327;28;20053;-67
2022/06/25 05:36:19;;;;;;;0.00;0.00;;;18.70;85.70;;;;;;5049622;28;20041;-67
2022/06/25 05:38:45;;;;;;;0.00;0.00;;;18.80;85.70;;;;;;5039977;28;20040;-67
2022/06/25 05:41:11;;;;;;;0.00;0.00;;;18.80;85.90;;;;;;5050579;28;20065;-67
2022/06/25 05:43:38;;;;;;;0.00;0.00;;;18.80;85.90;;;;;;5051674;28;20041;-67
2022/06/25 05:46:05;;;;;;;0.10;0.10;;;18.90;86.00;;;;;;5052295;28;20045;-67
2022/06/25 05:48:30;;;;;;;0.00;0.00;;;18.90;85.70;;;;;;5051466;28;20037;-67
2022/06/25 05:50:57;;;;;;;0.00;0.00;;;18.90;85.80;;;;;;5053248;28;20103;-68
2022/06/25 05:53:26;;;;;;;0.00;0.00;;;19.00;85.70;;;;;;5052436;28;20049;-68
2022/06/25 05:55:52;;;;;;;0.00;0.00;;;19.10;86.10;;;;;;5046967;28;20033;-76
2022/06/25 05:58:18;;;;;;;0.00;0.00;;;19.10;86.00;;;;;;5056120;28;20041;-75
2022/06/25 06:00:44;;;;;;;0.80;0.75;;;19.20;85.70;;;;;;5036156;28;20053;-76
2022/06/25 06:03:10;;;;;;;0.00;0.00;;;19.20;85.60;;;;;;5049683;28;20386;-77
2022/06/25 06:05:38;;;;;;;0.00;0.00;;;19.30;85.20;;;;;;5051654;28;20068;-76
2022/06/25 06:08:05;;;;;;;0.00;0.00;;;19.40;85.30;;;;;;5051337;28;20111;-79
2022/06/25 06:10:31;;;;;;;0.00;0.00;;;19.40;85.40;;;;;;5049706;28;20049;-74
2022/06/25 06:12:56;;;;;;;0.00;0.00;;;19.50;85.20;;;;;;5050207;28;20053;-73
2022/06/25 06:15:22;;;;;;;0.15;0.15;;;19.50;84.80;;;;;;5051632;28;20102;-73
2022/06/25 06:17:48;;;;;;;0.00;0.00;;;19.60;84.80;;;;;;5050554;28;20060;-73
2022/06/25 06:20:13;;;;;;;0.00;0.00;;;19.70;85.10;;;;;;5050067;28;20034;-73
2022/06/25 06:22:39;;;;;;;0.00;0.00;;;19.80;84.90;;;;;;5050746;28;20147;-73
2022/06/25 06:25:05;;;;;;;0.00;0.00;;;19.80;84.50;;;;;;5049903;28;20044;-73
2022/06/25 06:27:31;;;;;;;0.20;0.20;;;19.90;84.20;;;;;;5051761;28;20413;-73
2022/06/25 06:29:56;;;;;;;0.22;0.15;;;20.00;83.90;;;;;;5041949;28;20052;-73
2022/06/25 06:32:22;;;;;;;0.00;0.00;;;20.00;83.60;;;;;;5039345;28;20190;-73
2022/06/25 06:34:47;;;;;;;0.00;0.00;;;20.00;83.30;;;;;;5052559;28;20076;-73
2022/06/25 06:37:13;;;;;;;0.00;0.00;;;20.00;83.00;;;;;;5050084;28;20044;-73
2022/06/25 06:39:39;;;;;;;0.00;0.00;;;20.10;82.90;;;;;;5050252;28;20521;-74
2022/06/25 06:42:05;;;;;;;0.00;0.00;;;20.10;82.60;;;;;;5050776;28;20089;-73
2022/06/25 06:44:30;;;;;;;0.00;0.00;;;20.00;82.30;;;;;;5051165;28;20405;-74
2022/06/25 06:46:56;;;;;;;0.00;0.00;;;20.10;82.50;;;;;;5050123;28;20494;-73
2022/06/25 06:49:21;;;;;;;0.00;0.00;;;20.10;82.20;;;;;;5050762;28;20072;-73
2022/06/25 06:51:47;;;;;;;0.00;0.00;;;20.10;82.30;;;;;;5050361;28;20044;-73
2022/06/25 06:54:13;;;;;;;0.00;0.00;;;20.20;82.40;;;;;;5049794;28;20045;-73
2022/06/25 06:56:38;;;;;;;0.00;0.00;;;20.20;81.90;;;;;;5049301;28;20064;-73
2022/06/25 06:59:04;;;;;;;0.00;0.00;;;20.30;81.50;;;;;;5049966;28;20494;-74
2022/06/25 07:01:30;;;;;;;0.00;0.00;;;20.30;81.50;;;;;;5046587;28;20124;-74
2022/06/25 07:03:56;;;;;;;0.00;0.00;;;20.40;81.50;;;;;;5050413;28;20048;-74
2022/06/25 07:06:21;;;;;;;0.00;0.00;;;20.50;81.10;;;;;;5049070;28;20052;-75
2022/06/25 07:08:47;;;;;;;0.00;0.00;;;20.40;80.70;;;;;;5045887;28;20045;-72
2022/06/25 07:11:28;;;;;;;0.00;0.00;;;20.50;80.50;;;;;;5049312;28;20057;-74
2022/06/25 07:14:01;;;;;;;0.00;0.00;;;20.50;80.20;;;;;;5049091;28;20037;-74
2022/06/25 07:16:28;;;;;;;0.00;0.00;;;20.60;80.20;;;;;;5040892;28;20034;-74
2022/06/25 07:18:55;;;;;;;0.00;0.00;;;20.50;80.20;;;;;;5033309;28;20061;-75
2022/06/25 07:21:22;;;;;;;0.00;0.00;;;20.60;80.10;;;;;;5048686;28;20037;-73
2022/06/25 07:23:47;;;;;;;0.00;0.00;;;20.50;80.10;;;;;;5049182;28;20102;-74
2022/06/25 07:26:13;;;;;;;0.00;0.00;;;20.60;79.60;;;;;;5049273;28;20037;-72
2022/06/25 07:28:38;;;;;;;0.00;0.00;;;20.60;79.70;;;;;;5049118;28;20043;-72
2022/06/25 07:31:04;;;;;;;0.00;0.00;;;20.60;79.60;;;;;;5049840;28;20084;-72
2022/06/25 07:33:30;;;;;;;0.00;0.00;;;20.60;79.40;;;;;;5031072;28;20053;-72
2022/06/25 07:35:57;;;;;;;0.08;0.08;;;20.60;79.50;;;;;;5048791;28;20045;-72
2022/06/25 07:38:23;;;;;;;0.00;0.00;;;20.60;79.30;;;;;;5048588;28;20049;-72
2022/06/25 07:40:49;;;;;;;0.15;0.15;;;20.60;79.30;;;;;;5049764;28;20036;-72
2022/06/25 07:43:16;;;;;;;2.80;1.52;;;20.70;79.30;;;;;;5049020;28;20045;-73
2022/06/25 07:45:41;;;;;;;0.00;0.00;;;20.70;78.90;;;;;;5047831;28;20123;-73
2022/06/25 07:48:07;;;;;;;0.32;0.32;;;20.80;78.50;;;;;;5047116;28;20120;-72
2022/06/25 07:53:17;;;;;;;0.00;0.00;;;20.80;78.30;;;;;;5048138;28;20049;-72
2022/06/25 07:55:43;;;;;;;0.00;0.00;;;20.90;78.30;;;;;;5047960;28;20051;-72
2022/06/25 07:58:09;;;;;;;0.00;0.00;;;20.90;78.40;;;;;;5046955;28;20044;-72
2022/06/25 08:00:34;;;;;;;1.25;1.02;;;20.80;78.20;;;;;;5049854;28;20052;-72
2022/06/25 08:03:01;;;;;;;0.15;0.15;;;20.80;78.40;;;;;;5049285;28;20460;-73
2022/06/25 08:05:27;;;;;;;0.00;0.00;;;20.80;78.00;;;;;;5048187;28;20506;-72
2022/06/25 08:07:54;;;;;;;0.00;0.00;;;20.80;78.00;;;;;;5048683;28;20102;-73
2022/06/25 08:10:19;;;;;;;0.00;0.00;;;20.80;78.30;;;;;;5041617;28;20539;-72
2022/06/25 08:12:45;;;;;;;0.00;0.00;;;20.80;78.70;;;;;;5048018;28;20048;-73
2022/06/25 08:15:11;;;;;;;0.00;0.00;;;20.80;78.90;;;;;;5048261;28;20093;-72
2022/06/25 08:17:38;;;;;;;3.30;1.65;;;20.90;78.60;;;;;;5030548;28;20055;-72
2022/06/25 08:20:04;;;;;;;0.10;0.10;;;21.00;77.90;;;;;;5045935;28;20151;-72
2022/06/25 08:22:30;;;;;;;0.63;0.63;;;21.00;78.00;;;;;;5042279;28;20128;-74
2022/06/25 08:24:56;;;;;;;0.00;0.00;;;21.00;77.60;;;;;;5048344;28;20041;-74
2022/06/25 08:27:22;;;;;;;0.00;0.00;;;21.10;77.80;;;;;;5048232;28;21762;-72
2022/06/25 08:29:48;;;;;;;0.00;0.00;;;21.10;77.40;;;;;;5048910;28;20179;-72
2022/06/25 08:32:14;;;;;;;0.00;0.00;;;21.20;77.40;;;;;;5048427;28;20048;-72
2022/06/25 08:34:40;;;;;;;0.00;0.00;;;21.30;77.10;;;;;;5048341;28;20048;-72
2022/06/25 08:37:06;;;;;;;0.90;0.90;;;21.40;77.00;;;;;;5047150;28;20065;-73
2022/06/25 08:39:32;;;;;;;0.00;0.00;;;21.40;76.10;;;;;;5045443;28;20136;-72
2022/06/25 08:42:03;;;;;;;0.00;0.00;;;21.40;76.00;;;;;;5048740;28;20122;-74
2022/06/25 08:44:32;;;;;;;0.00;0.00;;;21.40;76.40;;;;;;5047759;28;20056;-74
2022/06/25 08:46:58;;;;;;;0.00;0.00;;;21.50;75.50;;;;;;5047253;28;20556;-74
2022/06/25 08:49:26;;;;;;;0.10;0.10;;;21.50;75.70;;;;;;5048184;28;20041;-74
2022/06/25 08:51:57;;;;;;;0.00;0.00;;;21.60;75.90;;;;;;5048559;28;20044;-74
2022/06/25 08:54:24;;;;;;;0.05;0.05;;;21.60;75.90;;;;;;5044013;28;20099;-74
2022/06/25 08:56:50;;;;;;;0.00;0.00;;;21.70;76.00;;;;;;5046963;28;20095;-74
2022/06/25 08:59:17;;;;;;;0.05;0.05;;;21.80;75.40;;;;;;5043613;28;20041;-74
2022/06/25 09:01:44;;;;;;;1.13;0.90;;;21.80;75.70;;;;;;5047119;28;20048;-67
2022/06/25 09:04:10;;;;;;;0.03;0.03;;;21.80;74.70;;;;;;5048142;28;20041;-67
2022/06/25 09:06:35;;;;;;;0.35;0.35;;;21.80;75.10;;;;;;5048244;28;20060;-68
2022/06/25 09:09:11;;;;;;;0.00;0.00;;;21.80;74.80;;;;;;5047676;28;20128;-67
2022/06/25 09:11:58;;;;;;;0.00;0.00;;;21.90;75.20;;;;;;5047642;28;20482;-66
2022/06/25 09:14:28;;;;;;;0.00;0.00;;;21.90;75.20;;;;;;5047449;28;20379;-66
2022/06/25 09:17:08;;;;;;;0.00;0.00;;;21.90;74.90;;;;;;5062897;28;20044;-67
2022/06/25 09:19:40;;;;;;;0.00;0.00;;;21.90;74.70;;;;;;5029469;28;20045;-67
2022/06/25 09:22:08;;;;;;;0.00;0.00;;;21.90;74.90;;;;;;5044779;28;20052;-67
2022/06/25 09:24:40;;;;;;;0.00;0.00;;;22.00;75.10;;;;;;5047246;28;20167;-67
2022/06/25 09:27:06;;;;;;;0.00;0.00;;;22.00;73.90;;;;;;5048475;28;20098;-67
2022/06/25 09:29:40;;;;;;;0.00;0.00;;;21.90;74.30;;;;;;5048276;28;20053;-67
2022/06/25 09:32:06;;;;;;;0.00;0.00;;;22.00;74.90;;;;;;5063578;28;20567;-67
2022/06/25 09:34:35;;;;;;;0.10;0.10;;;22.10;74.20;;;;;;5047975;28;20040;-66
2022/06/25 09:37:26;;;;;;;0.00;0.00;;;22.10;74.50;;;;;;5048114;28;20076;-66
2022/06/25 09:39:54;;;;;;;0.00;0.00;;;22.20;72.70;;;;;;5062988;28;20058;-66
2022/06/25 09:42:32;;;;;;;0.00;0.00;;;22.30;73.70;;;;;;5048479;28;20048;-67
2022/06/25 09:45:04;;;;;;;0.00;0.00;;;22.30;73.50;;;;;;5063228;28;20045;-66
2022/06/25 09:47:33;;;;;;;0.00;0.00;;;22.40;73.20;;;;;;5047433;28;20061;-66
2022/06/25 09:50:11;;;;;;;0.00;0.00;;;22.50;73.10;;;;;;5047805;28;20053;-66
2022/06/25 09:52:38;;;;;;;0.00;0.00;;;22.50;72.00;;;;;;5048061;28;20060;-66
2022/06/25 09:55:05;;;;;;;0.45;0.45;;;22.70;72.50;;;;;;5046707;28;20529;-66
2022/06/25 09:57:32;;;;;;;0.00;0.00;;;22.90;73.60;;;;;;5048484;28;20378;-67
2022/06/25 09:59:59;;;;;;;0.28;0.28;;;22.90;72.20;;;;;;5050106;28;20033;-67
2022/06/25 10:02:27;;;;;;;0.00;0.00;;;22.90;71.90;;;;;;5050870;28;20028;-71
2022/06/25 10:04:59;;;;;;;0.00;0.00;;;23.00;71.20;;;;;;5050530;28;20047;-67
2022/06/25 10:07:59;;;;;;;0.00;0.00;;;23.00;71.30;;;;;;5048743;28;20063;-67
2022/06/25 10:10:19;;;;;;;0.00;0.00;;;23.10;70.50;;;;;;5048628;28;20057;-66
2022/06/25 10:12:46;;;;;;;0.00;0.00;;;23.10;69.20;;;;;;5046841;28;20493;-67
2022/06/25 10:15:20;;;;;;;0.00;0.00;;;23.10;70.10;;;;;;5051595;28;20166;-67
2022/06/25 10:17:47;;;;;;;0.00;0.00;;;23.00;69.50;;;;;;5033700;28;20041;-66
2022/06/25 10:20:15;;;;;;;0.00;0.00;;;23.00;68.90;;;;;;5038508;28;20037;-67
2022/06/25 10:22:41;;;;;;;0.00;0.00;;;23.00;69.60;;;;;;5050080;28;20037;-67
2022/06/25 10:25:11;;;;;;;0.00;0.00;;;23.00;69.80;;;;;;5050262;28;20254;-68
2022/06/25 10:27:45;;;;;;;0.00;0.00;;;23.00;69.70;;;;;;5049901;28;20041;-67
2022/06/25 10:30:12;;;;;;;0.00;0.00;;;22.90;68.40;;;;;;5049232;28;20088;-67
2022/06/25 10:32:47;;;;;;;0.38;0.38;;;22.90;68.80;;;;;;5048173;28;20079;-66
2022/06/25 10:35:31;;;;;;;0.00;0.00;;;22.80;69.30;;;;;;5045460;28;20035;-67
2022/06/25 10:38:03;;;;;;;0.00;0.00;;;22.70;70.20;;;;;;5042906;28;20053;-67
2022/06/25 10:40:33;;;;;;;0.00;0.00;;;22.50;71.10;;;;;;5043674;28;20076;-67
2022/06/25 10:43:41;;;;;;;0.00;0.00;;;22.40;73.20;;;;;;5031610;28;20080;-67
2022/06/25 10:46:25;;;;;;;0.00;0.00;;;22.10;74.80;;;;;;5038634;28;20067;-68
2022/06/25 10:49:03;;;;;;;0.00;0.00;;;21.80;75.20;;;;;;5043766;28;20048;-67
2022/06/25 10:51:33;;;;;;;0.00;0.00;;;21.60;75.50;;;;;;5036737;28;20446;-67
2022/06/25 10:54:01;;;;;;;0.00;0.00;;;21.50;76.00;;;;;;5030997;28;20051;-68
2022/06/25 10:56:41;;;;;;;0.00;0.00;;;21.40;76.80;;;;;;5065118;28;20041;-68
2022/06/25 10:59:06;;;;;;;0.00;0.00;;;21.50;76.90;;;;;;5049085;28;20045;-67
2022/06/25 11:01:33;;;;;;;0.00;0.00;;;21.40;76.70;;;;;;5049343;28;20044;-67
2022/06/25 11:04:01;;;;;;;0.52;0.38;;;21.30;77.00;;;;;;5048152;28;20049;-66
2022/06/25 11:06:35;;;;;;;0.00;0.00;;;21.30;77.40;;;;;;5050303;28;20033;-66
2022/06/25 11:09:13;;;;;;;0.00;0.00;;;21.40;77.20;;;;;;5046565;28;20036;-67
2022/06/25 11:11:40;;;;;;;0.00;0.00;;;21.50;77.40;;;;;;5048736;28;20041;-66
2022/06/25 11:14:24;;;;;;;0.00;0.00;;;21.40;77.50;;;;;;5049276;28;20429;-66
2022/06/25 11:16:51;;;;;;;0.00;0.00;;;21.40;77.20;;;;;;5050428;28;20497;-66
2022/06/25 11:19:18;;;;;;;0.00;0.00;;;21.50;77.10;;;;;;5048268;28;20071;-66
2022/06/25 11:21:47;;;;;;;0.00;0.00;;;21.50;77.00;;;;;;5041022;28;20080;-67
2022/06/25 11:24:22;;;;;;;0.00;0.00;;;21.50;76.70;;;;;;5043514;28;20041;-68
2022/06/25 11:29:46;;;;;;;0.00;0.00;;;21.30;76.40;;;;;;5046027;28;20565;-67
2022/06/25 11:32:23;;;;;;;0.00;0.00;;;21.20;76.50;;;;;;5049052;28;20066;-67
2022/06/25 11:34:58;;;;;;;0.00;0.00;;;21.00;76.70;;;;;;5036765;28;20045;-68
2022/06/25 11:37:25;;;;;;;0.13;0.13;;;20.70;77.40;;;;;;5043848;28;20453;-68
2022/06/25 11:39:51;;;;;;;0.00;0.00;;;20.60;78.20;;;;;;5048334;28;20493;-67
2022/06/25 11:42:17;;;;;;;0.05;0.05;;;20.50;79.40;;;;;;5048168;28;20041;-66
2022/06/25 11:44:53;;;;;;;0.10;0.10;;;20.30;79.80;;;;;;5049750;28;20048;-67
2022/06/25 11:47:24;;;;;;;0.00;0.00;;;20.20;80.00;;;;;;5048853;28;20093;-67
2022/06/25 11:49:51;;;;;;;0.00;0.00;;;20.10;80.40;;;;;;5048568;28;20102;-67
2022/06/25 11:52:19;;;;;;;0.35;0.35;;;20.10;81.00;;;;;;5048074;28;20494;-67
2022/06/25 11:54:46;;;;;;;0.00;0.00;;;20.00;82.00;;;;;;5048146;28;20047;-68
2022/06/25 11:57:25;;;;;;;0.00;0.00;;;20.10;82.50;;;;;;5048669;28;20060;-67
2022/06/25 11:59:52;;;;;;;0.00;0.00;;;20.20;82.70;;;;;;5047540;28;20121;-66
2022/06/25 12:02:18;;;;;;;0.10;0.10;;;20.30;82.50;;;;;;5048625;28;20059;-66
2022/06/25 12:04:53;;;;;;;0.00;0.00;;;20.50;82.70;;;;;;5048514;28;20036;-65
2022/06/25 12:07:27;;;;;;;0.00;0.00;;;20.50;81.90;;;;;;5048554;28;20379;-65
2022/06/25 12:10:02;;;;;;;0.00;0.00;;;20.60;82.50;;;;;;5048250;28;20085;-65
2022/06/25 12:12:28;;;;;;;0.10;0.10;;;20.70;82.30;;;;;;5048620;28;20041;-65
2022/06/25 12:14:55;;;;;;;0.10;0.10;;;20.80;81.70;;;;;;5047833;28;20684;-65
2022/06/25 12:17:21;;;;;;;0.00;0.00;;;20.90;81.30;;;;;;5048061;28;20055;-65
2022/06/25 12:19:53;;;;;;;0.00;0.00;;;21.10;81.10;;;;;;5047676;28;20033;-65
2022/06/25 12:22:25;;;;;;;0.20;0.20;;;21.30;80.60;;;;;;5048154;28;20040;-66
2022/06/25 12:24:55;;;;;;;0.00;0.00;;;21.40;79.60;;;;;;5048011;28;20041;-65
2022/06/25 12:27:21;;;;;;;0.13;0.13;;;21.50;79.10;;;;;;5047913;28;20048;-66
2022/06/25 12:29:48;;;;;;;0.00;0.00;;;21.60;77.70;;;;;;5047666;28;20032;-66
2022/06/25 12:32:14;;;;;;;0.00;0.00;;;21.70;77.90;;;;;;5045331;28;20037;-65
2022/06/25 12:34:51;;;;;;;0.00;0.00;;;21.80;77.60;;;;;;5047560;28;20083;-65
2022/06/25 12:37:31;;;;;;;0.00;0.00;;;21.90;77.50;;;;;;5044601;28;20059;-65
2022/06/25 12:39:59;;;;;;;0.00;0.00;;;21.90;77.00;;;;;;5042226;28;20865;-66
2022/06/25 12:42:29;;;;;;;0.00;0.00;;;22.00;76.20;;;;;;5045792;28;20463;-65
2022/06/25 12:44:56;;;;;;;0.00;0.00;;;22.00;76.30;;;;;;5047143;28;20075;-65
2022/06/25 12:47:22;;;;;;;0.00;0.00;;;22.10;76.20;;;;;;5043423;28;20126;-65
2022/06/25 12:49:57;;;;;;;0.00;0.00;;;22.20;75.90;;;;;;5044739;28;20029;-67
2022/06/25 12:52:45;;;;;;;0.00;0.00;;;22.30;75.40;;;;;;5045270;28;20072;-69
2022/06/25 12:55:24;;;;;;;0.00;0.00;;;22.40;75.70;;;;;;5045920;28;20510;-67
2022/06/25 12:57:50;;;;;;;0.00;0.00;;;22.60;74.50;;;;;;5048801;28;20044;-67
2022/06/25 13:00:17;;;;;;;0.00;0.00;;;22.60;73.90;;;;;;5048628;28;20041;-67
2022/06/25 13:02:43;;;;;;;0.00;0.00;;;22.70;74.60;;;;;;5048674;28;20517;-71
2022/06/25 13:05:08;;;;;;;0.00;0.00;;;22.90;74.20;;;;;;5048443;28;20049;-67